sensor_id;sensor_type;location;lat;lon;timestamp;pressure;altitude;pressure_sealevel;temperature;humidity
2184;BME280;1098;48.940;8.962;2022-09-27T00:01:50;96741.38;;;10.75;100.00
2184;BME280;1098;48.940;8.962;2022-09-27T00:04:18;96742.16;;;10.65;100.00
2184;BME280;1098;48.940;8.962;2022-09-27T00:06:46;96745.69;;;10.81;100.00
2184;BME280;1098;48.940;8.962;2022-09-27T00:09:15;96735.16;;;10.75;100.00
2184;BME280;1098;48.940;8.962;2022-09-27T00:11:43;96745.44;;;10.57;100.00
2184;BME280;1098;48.940;8.962;2022-09-27T00:14:11;96749.75;;;10.53;100.00
2184;BME280;1098;48.940;8.962;2022-09-27T00:16:40;96750.56;;;10.54;100.00
2184;BME280;1098;48.940;8.962;2022-09-27T00:19:11;96764.88;;;10.70;100.00
2184;BME280;1098;48.940;8.962;2022-09-27T00:21:39;96755.94;;;10.64;100.00
2184;BME280;1098;48.940;8.962;2022-09-27T00:24:08;96755.69;;;10.76;100.00
2184;BME280;1098;48.940;8.962;2022-09-27T00:26:38;96754.88;;;10.80;100.00
2184;BME280;1098;48.940;8.962;2022-09-27T00:29:08;96745.44;;;10.57;100.00
2184;BME280;1098;48.940;8.962;2022-09-27T00:31:37;96753.53;;;10.52;100.00
2184;BME280;1098;48.940;8.962;2022-09-27T00:34:06;96759.19;;;10.66;100.00
2184;BME280;1098;48.940;8.962;2022-09-27T00:36:35;96758.91;;;10.62;100.00
2184;BME280;1098;48.940;8.962;2022-09-27T00:39:04;96748.38;;;10.46;100.00
2184;BME280;1098;48.940;8.962;2022-09-27T00:41:33;96758.34;;;10.30;100.00
2184;BME280;1098;48.940;8.962;2022-09-27T00:44:03;96752.41;;;10.33;100.00
2184;BME280;1098;48.940;8.962;2022-09-27T00:46:32;96754.56;;;10.41;100.00
2184;BME280;1098;48.940;8.962;2022-09-27T00:49:04;96757.00;;;10.27;100.00
2184;BME280;1098;48.940;8.962;2022-09-27T00:51:33;96763.47;;;10.31;100.00
2184;BME280;1098;48.940;8.962;2022-09-27T00:54:03;96759.47;;;10.39;100.00
2184;BME280;1098;48.940;8.962;2022-09-27T00:56:31;96789.44;;;10.53;100.00
2184;BME280;1098;48.940;8.962;2022-09-27T00:59:01;96782.97;;;10.59;100.00
2184;BME280;1098;48.940;8.962;2022-09-27T01:01:30;96777.28;;;10.91;100.00
2184;BME280;1098;48.940;8.962;2022-09-27T01:03:59;96771.38;;;10.79;100.00
2184;BME280;1098;48.940;8.962;2022-09-27T01:06:33;96780.53;;;11.03;100.00
2184;BME280;1098;48.940;8.962;2022-09-27T01:09:04;96776.19;;;10.61;100.00
2184;BME280;1098;48.940;8.962;2022-09-27T01:11:37;96775.94;;;10.53;100.00
2184;BME280;1098;48.940;8.962;2022-09-27T01:14:23;96777.28;;;10.71;100.00
2184;BME280;1098;48.940;8.962;2022-09-27T01:16:59;96770.00;;;10.71;100.00
2184;BME280;1098;48.940;8.962;2022-09-27T01:19:37;96765.69;;;10.80;100.00
2184;BME280;1098;48.940;8.962;2022-09-27T01:22:12;96773.22;;;11.09;100.00
2184;BME280;1098;48.940;8.962;2022-09-27T01:24:53;96769.97;;;11.07;100.00
2184;BME280;1098;48.940;8.962;2022-09-27T01:27:41;96757.81;;;11.04;100.00
2184;BME280;1098;48.940;8.962;2022-09-27T01:30:19;96761.59;;;11.08;100.00
2184;BME280;1098;48.940;8.962;2022-09-27T01:32:53;96759.22;;;10.76;100.00
2184;BME280;1098;48.940;8.962;2022-09-27T01:35:28;96759.44;;;11.10;100.00
2184;BME280;1098;48.940;8.962;2022-09-27T01:38:05;96754.31;;;10.88;100.00
2184;BME280;1098;48.940;8.962;2022-09-27T01:40:39;96753.25;;;10.64;100.00
2184;BME280;1098;48.940;8.962;2022-09-27T01:43:29;96768.66;;;10.68;100.00
2184;BME280;1098;48.940;8.962;2022-09-27T01:46:01;96764.31;;;10.88;100.00
2184;BME280;1098;48.940;8.962;2022-09-27T01:48:55;96765.13;;;10.88;100.00
2184;BME280;1098;48.940;8.962;2022-09-27T01:51:27;96767.28;;;10.61;100.00
2184;BME280;1098;48.940;8.962;2022-09-27T01:53:57;96774.31;;;10.62;100.00
2184;BME280;1098;48.940;8.962;2022-09-27T01:56:46;96779.19;;;10.55;100.00
2184;BME280;1098;48.940;8.962;2022-09-27T01:59:25;96779.16;;;10.45;100.00
2184;BME280;1098;48.940;8.962;2022-09-27T02:02:23;96805.09;;;10.51;100.00
2184;BME280;1098;48.940;8.962;2022-09-27T02:05:16;96810.16;;;10.27;100.00
2184;BME280;1098;48.940;8.962;2022-09-27T02:07:51;96808.06;;;10.39;100.00
2184;BME280;1098;48.940;8.962;2022-09-27T02:10:22;96813.41;;;10.24;100.00
2184;BME280;1098;48.940;8.962;2022-09-27T02:12:57;96806.63;;;10.21;100.00
2184;BME280;1098;48.940;8.962;2022-09-27T02:15:28;96802.00;;;10.12;100.00
2184;BME280;1098;48.940;8.962;2022-09-27T02:18:21;96805.22;;;10.09;100.00
2184;BME280;1098;48.940;8.962;2022-09-27T02:20:53;96797.38;;;10.02;100.00
2184;BME280;1098;48.940;8.962;2022-09-27T02:23:24;96793.66;;;10.13;100.00
2184;BME280;1098;48.940;8.962;2022-09-27T02:26:06;96799.06;;;10.18;100.00
2184;BME280;1098;48.940;8.962;2022-09-27T02:28:39;96793.31;;;9.99;100.00
2184;BME280;1098;48.940;8.962;2022-09-27T02:31:09;96789.25;;;9.92;100.00
2184;BME280;1098;48.940;8.962;2022-09-27T02:33:41;96808.75;;;10.09;100.00
2184;BME280;1098;48.940;8.962;2022-09-27T02:36:12;96801.63;;;9.83;100.00
2184;BME280;1098;48.940;8.962;2022-09-27T02:38:41;96799.53;;;10.00;100.00
2184;BME280;1098;48.940;8.962;2022-09-27T02:41:12;96804.38;;;10.03;100.00
2184;BME280;1098;48.940;8.962;2022-09-27T02:43:40;96804.84;;;9.80;100.00
2184;BME280;1098;48.940;8.962;2022-09-27T02:46:13;96813.81;;;9.95;100.00
2184;BME280;1098;48.940;8.962;2022-09-27T02:48:50;96807.31;;;9.91;100.00
2184;BME280;1098;48.940;8.962;2022-09-27T02:51:25;96807.78;;;9.78;100.00
2184;BME280;1098;48.940;8.962;2022-09-27T02:54:01;96812.97;;;9.85;100.00
2184;BME280;1098;48.940;8.962;2022-09-27T02:56:52;96816.97;;;9.77;100.00
2184;BME280;1098;48.940;8.962;2022-09-27T03:00:03;96819.66;;;9.72;100.00
2184;BME280;1098;48.940;8.962;2022-09-27T03:02:50;96819.16;;;9.85;100.00
2184;BME280;1098;48.940;8.962;2022-09-27T03:05:33;96821.81;;;9.80;100.00
2184;BME280;1098;48.940;8.962;2022-09-27T03:08:02;96812.75;;;10.02;100.00
2184;BME280;1098;48.940;8.962;2022-09-27T03:10:33;96821.91;;;9.95;100.00
2184;BME280;1098;48.940;8.962;2022-09-27T03:13:01;96815.75;;;10.10;100.00
2184;BME280;1098;48.940;8.962;2022-09-27T03:15:31;96827.00;;;9.87;100.00
2184;BME280;1098;48.940;8.962;2022-09-27T03:17:59;96833.19;;;9.87;100.00
2184;BME280;1098;48.940;8.962;2022-09-27T03:20:47;96836.13;;;9.81;100.00
2184;BME280;1098;48.940;8.962;2022-09-27T03:23:19;96837.47;;;9.73;100.00
2184;BME280;1098;48.940;8.962;2022-09-27T03:25:47;96840.16;;;9.78;100.00
2184;BME280;1098;48.940;8.962;2022-09-27T03:28:16;96840.75;;;9.85;100.00
2184;BME280;1098;48.940;8.962;2022-09-27T03:30:44;96849.09;;;9.84;100.00
2184;BME280;1098;48.940;8.962;2022-09-27T03:33:30;96836.41;;;9.84;100.00
2184;BME280;1098;48.940;8.962;2022-09-27T03:36:06;96848.09;;;9.95;100.00
2184;BME280;1098;48.940;8.962;2022-09-27T03:38:34;96844.47;;;9.74;100.00
2184;BME280;1098;48.940;8.962;2022-09-27T03:41:04;96846.91;;;9.76;100.00
2184;BME280;1098;48.940;8.962;2022-09-27T03:43:32;96849.66;;;9.86;100.00
2184;BME280;1098;48.940;8.962;2022-09-27T03:46:02;96855.84;;;9.86;100.00
2184;BME280;1098;48.940;8.962;2022-09-27T03:48:31;96851.50;;;9.80;100.00
2184;BME280;1098;48.940;8.962;2022-09-27T03:50:59;96852.59;;;9.84;100.00
2184;BME280;1098;48.940;8.962;2022-09-27T03:53:29;96852.84;;;9.78;100.00
2184;BME280;1098;48.940;8.962;2022-09-27T03:55:57;96860.25;;;9.97;100.00
2184;BME280;1098;48.940;8.962;2022-09-27T03:58:25;96848.00;;;9.80;100.00
2184;BME280;1098;48.940;8.962;2022-09-27T04:00:54;96858.28;;;9.88;100.00
2184;BME280;1098;48.940;8.962;2022-09-27T04:03:22;96861.03;;;9.98;100.00
2184;BME280;1098;48.940;8.962;2022-09-27T04:06:11;96859.94;;;9.94;100.00
2184;BME280;1098;48.940;8.962;2022-09-27T04:08:44;96853.75;;;9.93;100.00
2184;BME280;1098;48.940;8.962;2022-09-27T04:11:13;96853.44;;;9.90;100.00
2184;BME280;1098;48.940;8.962;2022-09-27T04:13:44;96848.56;;;9.87;100.00
2184;BME280;1098;48.940;8.962;2022-09-27T04:16:16;96850.53;;;9.96;100.00
2184;BME280;1098;48.940;8.962;2022-09-27T04:19:10;96848.94;;;10.06;100.00
2184;BME280;1098;48.940;8.962;2022-09-27T04:21:46;96846.72;;;9.92;100.00
2184;BME280;1098;48.940;8.962;2022-09-27T04:24:17;96850.22;;;9.93;100.00
2184;BME280;1098;48.940;8.962;2022-09-27T04:27:04;96854.56;;;9.94;100.00
2184;BME280;1098;48.940;8.962;2022-09-27T04:29:37;96861.84;;;9.98;100.00
2184;BME280;1098;48.940;8.962;2022-09-27T04:32:23;96846.47;;;9.99;100.00
2184;BME280;1098;48.940;8.962;2022-09-27T04:35:27;96842.94;;;9.93;100.00
2184;BME280;1098;48.940;8.962;2022-09-27T04:38:12;96850.53;;;9.96;100.00
2184;BME280;1098;48.940;8.962;2022-09-27T04:40:42;96859.69;;;10.00;100.00
2184;BME280;1098;48.940;8.962;2022-09-27T04:43:11;96863.34;;;9.79;100.00
2184;BME280;1098;48.940;8.962;2022-09-27T04:45:39;96868.19;;;9.72;100.00
2184;BME280;1098;48.940;8.962;2022-09-27T04:48:07;96861.22;;;9.76;100.00
2184;BME280;1098;48.940;8.962;2022-09-27T04:50:37;96874.81;;;9.96;100.00
2184;BME280;1098;48.940;8.962;2022-09-27T04:53:05;96872.00;;;9.81;100.00
2184;BME280;1098;48.940;8.962;2022-09-27T04:55:34;96874.69;;;9.76;100.00
2184;BME280;1098;48.940;8.962;2022-09-27T04:58:03;96869.34;;;9.86;100.00
2184;BME280;1098;48.940;8.962;2022-09-27T05:00:32;96878.22;;;9.82;100.00
2184;BME280;1098;48.940;8.962;2022-09-27T05:03:17;96882.91;;;9.96;100.00
2184;BME280;1098;48.940;8.962;2022-09-27T05:05:54;96887.75;;;9.94;100.00
2184;BME280;1098;48.940;8.962;2022-09-27T05:08:22;96896.19;;;9.66;100.00
2184;BME280;1098;48.940;8.962;2022-09-27T05:11:09;96906.47;;;9.69;100.00
2184;BME280;1098;48.940;8.962;2022-09-27T05:13:39;96908.41;;;9.79;100.00
2184;BME280;1098;48.940;8.962;2022-09-27T05:16:09;96915.94;;;9.72;100.00
2184;BME280;1098;48.940;8.962;2022-09-27T05:18:46;96910.78;;;9.70;100.00
2184;BME280;1098;48.940;8.962;2022-09-27T05:21:38;96915.13;;;9.71;100.00
2184;BME280;1098;48.940;8.962;2022-09-27T05:24:06;96930.25;;;9.77;100.00
2184;BME280;1098;48.940;8.962;2022-09-27T05:26:36;96917.97;;;9.54;100.00
2184;BME280;1098;48.940;8.962;2022-09-27T05:29:06;96929.03;;;9.58;100.00
2184;BME280;1098;48.940;8.962;2022-09-27T05:31:34;96930.69;;;9.64;100.00
2184;BME280;1098;48.940;8.962;2022-09-27T05:34:03;96932.31;;;9.65;100.00
2184;BME280;1098;48.940;8.962;2022-09-27T05:36:35;96924.72;;;9.57;100.00
2184;BME280;1098;48.940;8.962;2022-09-27T05:39:03;96935.28;;;9.63;100.00
2184;BME280;1098;48.940;8.962;2022-09-27T05:41:34;96932.94;;;9.72;100.00
2184;BME280;1098;48.940;8.962;2022-09-27T05:44:06;96938.88;;;9.79;100.00
2184;BME280;1098;48.940;8.962;2022-09-27T05:46:37;96935.03;;;9.65;100.00
2184;BME280;1098;48.940;8.962;2022-09-27T05:49:06;96943.19;;;9.75;100.00
2184;BME280;1098;48.940;8.962;2022-09-27T05:51:35;96946.53;;;9.92;100.00
2184;BME280;1098;48.940;8.962;2022-09-27T05:54:03;96937.03;;;9.85;100.00
2184;BME280;1098;48.940;8.962;2022-09-27T05:56:31;96942.13;;;9.81;100.00
2184;BME280;1098;48.940;8.962;2022-09-27T05:59:24;96943.72;;;9.77;100.00
2184;BME280;1098;48.940;8.962;2022-09-27T06:02:10;96936.75;;;9.81;100.00
2184;BME280;1098;48.940;8.962;2022-09-27T06:05:17;96944.84;;;9.81;100.00
2184;BME280;1098;48.940;8.962;2022-09-27T06:08:05;96945.22;;;9.95;100.00
2184;BME280;1098;48.940;8.962;2022-09-27T06:10:40;96952.66;;;10.20;100.00
2184;BME280;1098;48.940;8.962;2022-09-27T06:13:09;96950.19;;;10.13;100.00
2184;BME280;1098;48.940;8.962;2022-09-27T06:15:42;96953.00;;;9.91;100.00
2184;BME280;1098;48.940;8.962;2022-09-27T06:18:12;96958.31;;;9.81;100.00
2184;BME280;1098;48.940;8.962;2022-09-27T06:20:43;96959.94;;;9.82;100.00
2184;BME280;1098;48.940;8.962;2022-09-27T06:23:12;96961.97;;;9.97;100.00
2184;BME280;1098;48.940;8.962;2022-09-27T06:25:41;96965.34;;;9.82;100.00
2184;BME280;1098;48.940;8.962;2022-09-27T06:28:18;96963.81;;;9.91;100.00
2184;BME280;1098;48.940;8.962;2022-09-27T06:30:50;96970.69;;;9.72;100.00
2184;BME280;1098;48.940;8.962;2022-09-27T06:33:24;96981.84;;;9.86;100.00
2184;BME280;1098;48.940;8.962;2022-09-27T06:35:55;96977.59;;;9.95;100.00
2184;BME280;1098;48.940;8.962;2022-09-27T06:38:23;96978.91;;;9.92;100.00
2184;BME280;1098;48.940;8.962;2022-09-27T06:41:12;96986.38;;;9.80;100.00
2184;BME280;1098;48.940;8.962;2022-09-27T06:44:04;96992.03;;;9.79;100.00
2184;BME280;1098;48.940;8.962;2022-09-27T06:46:34;96999.66;;;9.87;100.00
2184;BME280;1098;48.940;8.962;2022-09-27T06:49:19;97001.47;;;9.44;100.00
2184;BME280;1098;48.940;8.962;2022-09-27T06:51:48;96999.28;;;9.73;100.00
2184;BME280;1098;48.940;8.962;2022-09-27T06:54:16;97000.63;;;9.44;100.00
2184;BME280;1098;48.940;8.962;2022-09-27T06:56:45;96984.66;;;9.37;100.00
2184;BME280;1098;48.940;8.962;2022-09-27T06:59:14;97001.75;;;9.48;100.00
2184;BME280;1098;48.940;8.962;2022-09-27T07:02:20;97003.44;;;9.54;100.00
2184;BME280;1098;48.940;8.962;2022-09-27T07:05:07;97010.47;;;9.55;100.00
2184;BME280;1098;48.940;8.962;2022-09-27T07:07:57;97017.06;;;9.42;100.00
2184;BME280;1098;48.940;8.962;2022-09-27T07:10:26;97022.50;;;9.47;100.00
2184;BME280;1098;48.940;8.962;2022-09-27T07:12:55;97036.31;;;9.51;100.00
2184;BME280;1098;48.940;8.962;2022-09-27T07:15:24;97046.09;;;9.62;100.00
2184;BME280;1098;48.940;8.962;2022-09-27T07:17:58;97054.25;;;9.67;100.00
2184;BME280;1098;48.940;8.962;2022-09-27T07:20:28;97051.25;;;9.63;100.00
2184;BME280;1098;48.940;8.962;2022-09-27T07:22:57;97052.38;;;9.41;100.00
2184;BME280;1098;48.940;8.962;2022-09-27T07:25:25;97054.94;;;9.57;100.00
2184;BME280;1098;48.940;8.962;2022-09-27T07:27:53;97062.19;;;9.52;100.00
2184;BME280;1098;48.940;8.962;2022-09-27T07:30:22;97064.31;;;9.77;100.00
2184;BME280;1098;48.940;8.962;2022-09-27T07:32:55;97059.53;;;9.57;100.00
2184;BME280;1098;48.940;8.962;2022-09-27T07:35:25;97064.78;;;9.69;100.00
2184;BME280;1098;48.940;8.962;2022-09-27T07:37:56;97065.03;;;9.67;100.00
2184;BME280;1098;48.940;8.962;2022-09-27T07:40:25;97066.91;;;9.67;100.00
2184;BME280;1098;48.940;8.962;2022-09-27T07:42:54;97069.16;;;9.75;100.00
2184;BME280;1098;48.940;8.962;2022-09-27T07:45:22;97062.88;;;9.96;100.00
2184;BME280;1098;48.940;8.962;2022-09-27T07:48:11;97070.81;;;10.13;100.00
2184;BME280;1098;48.940;8.962;2022-09-27T07:51:20;97070.72;;;10.35;100.00
2184;BME280;1098;48.940;8.962;2022-09-27T07:53:52;97065.66;;;10.11;100.00
2184;BME280;1098;48.940;8.962;2022-09-27T07:56:35;97070.31;;;10.16;100.00
2184;BME280;1098;48.940;8.962;2022-09-27T07:59:05;97079.22;;;10.16;100.00
2184;BME280;1098;48.940;8.962;2022-09-27T08:01:33;97067.34;;;10.54;100.00
2184;BME280;1098;48.940;8.962;2022-09-27T08:04:01;97067.59;;;10.53;100.00
2184;BME280;1098;48.940;8.962;2022-09-27T08:06:32;97065.16;;;10.14;100.00
2184;BME280;1098;48.940;8.962;2022-09-27T08:09:01;97062.38;;;10.36;100.00
2184;BME280;1098;48.940;8.962;2022-09-27T08:11:32;97059.78;;;10.61;100.00
2184;BME280;1098;48.940;8.962;2022-09-27T08:14:02;97059.56;;;10.68;100.00
2184;BME280;1098;48.940;8.962;2022-09-27T08:16:33;97068.22;;;10.70;100.00
2184;BME280;1098;48.940;8.962;2022-09-27T08:19:34;97083.47;;;10.39;100.00
2184;BME280;1098;48.940;8.962;2022-09-27T08:22:26;97080.25;;;10.47;100.00
2184;BME280;1098;48.940;8.962;2022-09-27T08:25:00;97075.63;;;10.90;100.00
2184;BME280;1098;48.940;8.962;2022-09-27T08:28:01;97079.50;;;10.62;100.00
2184;BME280;1098;48.940;8.962;2022-09-27T08:30:37;97096.75;;;11.03;100.00
2184;BME280;1098;48.940;8.962;2022-09-27T08:33:06;97082.06;;;10.84;100.00
2184;BME280;1098;48.940;8.962;2022-09-27T08:35:34;97088.91;;;10.49;100.00
2184;BME280;1098;48.940;8.962;2022-09-27T08:38:05;97093.72;;;10.89;100.00
2184;BME280;1098;48.940;8.962;2022-09-27T08:40:38;97087.75;;;10.87;100.00
2184;BME280;1098;48.940;8.962;2022-09-27T08:43:12;97090.06;;;10.63;100.00
2184;BME280;1098;48.940;8.962;2022-09-27T08:45:48;97094.50;;;10.80;100.00
2184;BME280;1098;48.940;8.962;2022-09-27T08:48:20;97094.16;;;10.71;100.00
2184;BME280;1098;48.940;8.962;2022-09-27T08:50:50;97106.72;;;10.92;100.00
2184;BME280;1098;48.940;8.962;2022-09-27T08:53:22;97112.75;;;10.62;100.00
2184;BME280;1098;48.940;8.962;2022-09-27T08:55:53;97119.03;;;10.31;100.00
2184;BME280;1098;48.940;8.962;2022-09-27T08:58:27;97118.00;;;10.42;100.00
2184;BME280;1098;48.940;8.962;2022-09-27T09:01:00;97128.34;;;10.50;100.00
2184;BME280;1098;48.940;8.962;2022-09-27T09:03:34;97130.91;;;11.19;100.00
2184;BME280;1098;48.940;8.962;2022-09-27T09:06:07;97122.06;;;10.87;100.00
2184;BME280;1098;48.940;8.962;2022-09-27T09:08:40;97107.28;;;11.05;100.00
2184;BME280;1098;48.940;8.962;2022-09-27T09:11:20;97104.72;;;11.35;100.00
2184;BME280;1098;48.940;8.962;2022-09-27T09:14:19;97094.25;;;11.74;100.00
2184;BME280;1098;48.940;8.962;2022-09-27T09:16:52;97083.50;;;12.15;100.00
2184;BME280;1098;48.940;8.962;2022-09-27T09:19:33;97085.09;;;12.11;100.00
2184;BME280;1098;48.940;8.962;2022-09-27T09:22:46;97086.47;;;11.83;100.00
2184;BME280;1098;48.940;8.962;2022-09-27T09:25:22;97085.09;;;12.05;100.00
2184;BME280;1098;48.940;8.962;2022-09-27T09:28:00;97094.31;;;11.89;100.00
2184;BME280;1098;48.940;8.962;2022-09-27T09:30:33;97081.59;;;12.35;100.00
2184;BME280;1098;48.940;8.962;2022-09-27T09:33:08;97081.03;;;12.33;100.00
2184;BME280;1098;48.940;8.962;2022-09-27T09:35:43;97077.75;;;12.62;100.00
2184;BME280;1098;48.940;8.962;2022-09-27T09:38:14;97073.47;;;12.41;100.00
2184;BME280;1098;48.940;8.962;2022-09-27T09:40:46;97084.28;;;12.10;100.00
2184;BME280;1098;48.940;8.962;2022-09-27T09:43:17;97071.56;;;12.31;100.00
2184;BME280;1098;48.940;8.962;2022-09-27T09:45:51;97084.59;;;11.98;100.00
2184;BME280;1098;48.940;8.962;2022-09-27T09:48:23;97059.03;;;11.39;100.00
2184;BME280;1098;48.940;8.962;2022-09-27T09:50:56;97066.63;;;11.67;100.00
2184;BME280;1098;48.940;8.962;2022-09-27T09:53:27;97078.63;;;12.01;100.00
2184;BME280;1098;48.940;8.962;2022-09-27T09:55:58;97077.00;;;12.00;100.00
2184;BME280;1098;48.940;8.962;2022-09-27T09:58:30;97059.59;;;12.47;100.00
2184;BME280;1098;48.940;8.962;2022-09-27T10:01:16;97054.69;;;12.69;100.00
2184;BME280;1098;48.940;8.962;2022-09-27T10:03:46;97034.63;;;13.40;100.00
2184;BME280;1098;48.940;8.962;2022-09-27T10:06:15;97043.53;;;13.46;100.00
2184;BME280;1098;48.940;8.962;2022-09-27T10:08:44;97034.00;;;12.94;100.00
2184;BME280;1098;48.940;8.962;2022-09-27T10:11:36;97042.53;;;12.67;100.00
2184;BME280;1098;48.940;8.962;2022-09-27T10:14:18;97034.47;;;12.16;100.00
2184;BME280;1098;48.940;8.962;2022-09-27T10:16:54;97046.63;;;12.29;100.00
2184;BME280;1098;48.940;8.962;2022-09-27T10:19:26;97052.63;;;11.80;100.00
2184;BME280;1098;48.940;8.962;2022-09-27T10:21:57;97052.91;;;11.79;100.00
2184;BME280;1098;48.940;8.962;2022-09-27T10:24:26;97056.59;;;11.47;100.00
2184;BME280;1098;48.940;8.962;2022-09-27T10:27:08;97063.56;;;11.18;100.00
2184;BME280;1098;48.940;8.962;2022-09-27T10:29:38;97069.78;;;11.13;100.00
2184;BME280;1098;48.940;8.962;2022-09-27T10:32:18;97083.03;;;11.15;100.00
2184;BME280;1098;48.940;8.962;2022-09-27T10:34:49;97071.03;;;11.88;100.00
2184;BME280;1098;48.940;8.962;2022-09-27T10:37:19;97066.34;;;11.53;100.00
2184;BME280;1098;48.940;8.962;2022-09-27T10:39:57;97055.84;;;11.62;100.00
2184;BME280;1098;48.940;8.962;2022-09-27T10:42:33;97065.75;;;11.26;100.00
2184;BME280;1098;48.940;8.962;2022-09-27T10:47:53;97073.53;;;11.07;100.00
2184;BME280;1098;48.940;8.962;2022-09-27T10:50:33;97075.72;;;11.15;100.00
2184;BME280;1098;48.940;8.962;2022-09-27T10:53:22;97085.22;;;10.65;100.00
2184;BME280;1098;48.940;8.962;2022-09-27T10:55:58;97082.59;;;10.81;100.00
2184;BME280;1098;48.940;8.962;2022-09-27T10:58:30;97088.09;;;10.96;100.00
2184;BME280;1098;48.940;8.962;2022-09-27T11:00:59;97091.03;;;10.89;100.00
2184;BME280;1098;48.940;8.962;2022-09-27T11:03:35;97078.97;;;10.60;100.00
2184;BME280;1098;48.940;8.962;2022-09-27T11:06:17;97090.56;;;10.60;100.00
2184;BME280;1098;48.940;8.962;2022-09-27T11:08:46;97098.16;;;10.58;100.00
2184;BME280;1098;48.940;8.962;2022-09-27T11:11:17;97102.72;;;10.21;100.00
2184;BME280;1098;48.940;8.962;2022-09-27T11:13:57;97107.66;;;10.29;100.00
2184;BME280;1098;48.940;8.962;2022-09-27T11:16:36;97101.75;;;10.32;100.00
2184;BME280;1098;48.940;8.962;2022-09-27T11:19:13;97116.88;;;10.33;100.00
2184;BME280;1098;48.940;8.962;2022-09-27T11:21:49;97135.53;;;10.08;100.00
2184;BME280;1098;48.940;8.962;2022-09-27T11:24:23;97153.16;;;9.61;100.00
2184;BME280;1098;48.940;8.962;2022-09-27T11:26:57;97162.78;;;9.30;100.00
2184;BME280;1098;48.940;8.962;2022-09-27T11:29:33;97170.50;;;9.44;100.00
2184;BME280;1098;48.940;8.962;2022-09-27T11:32:27;97172.00;;;9.13;100.00
2184;BME280;1098;48.940;8.962;2022-09-27T11:35:01;97164.59;;;9.25;100.00
2184;BME280;1098;48.940;8.962;2022-09-27T11:37:31;97152.31;;;9.12;100.00
2184;BME280;1098;48.940;8.962;2022-09-27T11:40:10;97141.66;;;9.01;100.00
2184;BME280;1098;48.940;8.962;2022-09-27T11:42:46;97154.69;;;8.87;100.00
2184;BME280;1098;48.940;8.962;2022-09-27T11:45:22;97155.28;;;8.55;100.00
2184;BME280;1098;48.940;8.962;2022-09-27T11:48:17;97164.75;;;8.58;100.00
2184;BME280;1098;48.940;8.962;2022-09-27T11:50:55;97168.91;;;8.32;100.00
2184;BME280;1098;48.940;8.962;2022-09-27T11:53:30;97165.72;;;8.02;100.00
2184;BME280;1098;48.940;8.962;2022-09-27T11:56:09;97159.63;;;8.23;100.00
2184;BME280;1098;48.940;8.962;2022-09-27T11:58:45;97165.00;;;8.56;100.00
2184;BME280;1098;48.940;8.962;2022-09-27T12:01:20;97158.06;;;8.60;100.00
2184;BME280;1098;48.940;8.962;2022-09-27T12:03:55;97161.13;;;8.86;100.00
2184;BME280;1098;48.940;8.962;2022-09-27T12:06:31;97163.16;;;9.17;100.00
2184;BME280;1098;48.940;8.962;2022-09-27T12:09:04;97151.06;;;9.20;100.00
2184;BME280;1098;48.940;8.962;2022-09-27T12:11:36;97158.72;;;9.28;100.00
2184;BME280;1098;48.940;8.962;2022-09-27T12:14:08;97138.47;;;9.25;100.00
2184;BME280;1098;48.940;8.962;2022-09-27T12:16:39;97130.06;;;9.00;100.00
2184;BME280;1098;48.940;8.962;2022-09-27T12:19:11;97134.94;;;9.03;100.00
2184;BME280;1098;48.940;8.962;2022-09-27T12:21:56;97137.13;;;8.84;100.00
2184;BME280;1098;48.940;8.962;2022-09-27T12:24:26;97126.22;;;9.40;100.00
2184;BME280;1098;48.940;8.962;2022-09-27T12:27:30;97123.50;;;9.35;100.00
2184;BME280;1098;48.940;8.962;2022-09-27T12:29:59;97125.94;;;9.14;100.00
2184;BME280;1098;48.940;8.962;2022-09-27T12:32:30;97123.28;;;9.19;100.00
2184;BME280;1098;48.940;8.962;2022-09-27T12:35:01;97099.75;;;9.37;100.00
2184;BME280;1098;48.940;8.962;2022-09-27T12:37:32;97101.16;;;9.17;100.00
2184;BME280;1098;48.940;8.962;2022-09-27T12:40:05;97101.09;;;9.34;100.00
2184;BME280;1098;48.940;8.962;2022-09-27T12:42:38;97093.44;;;9.48;100.00
2184;BME280;1098;48.940;8.962;2022-09-27T12:45:24;97094.53;;;9.25;100.00
2184;BME280;1098;48.940;8.962;2022-09-27T12:48:03;97112.47;;;8.92;100.00
2184;BME280;1098;48.940;8.962;2022-09-27T12:50:35;97110.03;;;8.91;100.00
2184;BME280;1098;48.940;8.962;2022-09-27T12:53:09;97119.09;;;8.85;100.00
2184;BME280;1098;48.940;8.962;2022-09-27T12:55:49;97129.72;;;8.75;100.00
2184;BME280;1098;48.940;8.962;2022-09-27T12:58:28;97123.63;;;8.63;100.00
2184;BME280;1098;48.940;8.962;2022-09-27T13:01:02;97125.81;;;9.04;100.00
2184;BME280;1098;48.940;8.962;2022-09-27T13:03:45;97126.75;;;8.93;100.00
2184;BME280;1098;48.940;8.962;2022-09-27T13:06:23;97123.25;;;9.63;100.00
2184;BME280;1098;48.940;8.962;2022-09-27T13:09:10;97119.28;;;9.97;100.00
2184;BME280;1098;48.940;8.962;2022-09-27T13:11:46;97099.91;;;9.79;100.00
2184;BME280;1098;48.940;8.962;2022-09-27T13:14:19;97102.84;;;10.04;100.00
2184;BME280;1098;48.940;8.962;2022-09-27T13:16:51;97092.06;;;9.77;100.00
2184;BME280;1098;48.940;8.962;2022-09-27T13:22:07;97082.34;;;10.35;100.00
2184;BME280;1098;48.940;8.962;2022-09-27T13:24:46;97073.91;;;10.26;100.00
2184;BME280;1098;48.940;8.962;2022-09-27T13:27:36;97083.97;;;10.41;100.00
2184;BME280;1098;48.940;8.962;2022-09-27T13:36:05;97082.94;;;10.47;100.00
2184;BME280;1098;48.940;8.962;2022-09-27T13:38:36;97076.00;;;9.87;100.00
2184;BME280;1098;48.940;8.962;2022-09-27T13:41:14;97096.31;;;9.95;100.00
2184;BME280;1098;48.940;8.962;2022-09-27T13:43:55;97087.84;;;9.86;100.00
2184;BME280;1098;48.940;8.962;2022-09-27T13:46:44;97094.88;;;9.87;100.00
2184;BME280;1098;48.940;8.962;2022-09-27T13:49:20;97077.13;;;10.23;100.00
2184;BME280;1098;48.940;8.962;2022-09-27T13:52:13;97075.50;;;9.63;100.00
2184;BME280;1098;48.940;8.962;2022-09-27T13:54:55;97075.31;;;10.02;100.00
2184;BME280;1098;48.940;8.962;2022-09-27T13:57:42;97067.69;;;10.26;100.00
2184;BME280;1098;48.940;8.962;2022-09-27T14:00:17;97071.19;;;10.68;100.00
2184;BME280;1098;48.940;8.962;2022-09-27T14:02:58;97055.81;;;10.27;100.00
2184;BME280;1098;48.940;8.962;2022-09-27T14:05:47;97064.84;;;10.11;100.00
2184;BME280;1098;48.940;8.962;2022-09-27T14:08:19;97066.28;;;10.18;100.00
2184;BME280;1098;48.940;8.962;2022-09-27T14:10:52;97075.56;;;10.00;100.00
2184;BME280;1098;48.940;8.962;2022-09-27T14:13:21;97067.28;;;9.80;100.00